sensor_id;sensor_type;location;lat;lon;timestamp;pressure;altitude;pressure_sealevel;temperature;humidity
11648;BME280;5880;52.342;9.662;2023-02-28T00:00:49;102505.13;;;6.30;44.35
11648;BME280;5880;52.342;9.662;2023-02-28T00:03:15;102503.75;;;6.26;43.96
11648;BME280;5880;52.342;9.662;2023-02-28T00:05:41;102505.06;;;6.22;44.34
11648;BME280;5880;52.342;9.662;2023-02-28T00:08:08;102517.94;;;6.20;44.23
11648;BME280;5880;52.342;9.662;2023-02-28T00:10:34;102506.56;;;6.16;44.42
11648;BME280;5880;52.342;9.662;2023-02-28T00:13:05;102514.84;;;6.15;44.39
11648;BME280;5880;52.342;9.662;2023-02-28T00:15:32;102511.59;;;6.11;44.30
11648;BME280;5880;52.342;9.662;2023-02-28T00:17:59;102510.75;;;6.10;44.43
11648;BME280;5880;52.342;9.662;2023-02-28T00:20:24;102508.19;;;6.09;44.58
11648;BME280;5880;52.342;9.662;2023-02-28T00:22:52;102493.06;;;6.06;44.39
11648;BME280;5880;52.342;9.662;2023-02-28T00:25:22;102512.94;;;6.07;44.55
11648;BME280;5880;52.342;9.662;2023-02-28T00:27:49;102503.06;;;6.06;44.91
11648;BME280;5880;52.342;9.662;2023-02-28T00:30:19;102501.22;;;6.06;44.65
11648;BME280;5880;52.342;9.662;2023-02-28T00:32:45;102512.94;;;6.07;44.86
11648;BME280;5880;52.342;9.662;2023-02-28T00:35:12;102509.38;;;6.06;45.06
11648;BME280;5880;52.342;9.662;2023-02-28T00:37:38;102500.19;;;6.07;44.88
11648;BME280;5880;52.342;9.662;2023-02-28T00:40:04;102497.34;;;6.09;45.16
11648;BME280;5880;52.342;9.662;2023-02-28T00:42:32;102499.19;;;6.08;44.83
11648;BME280;5880;52.342;9.662;2023-02-28T00:44:58;102495.94;;;6.05;44.46
11648;BME280;5880;52.342;9.662;2023-02-28T00:47:23;102496.63;;;6.07;44.63
11648;BME280;5880;52.342;9.662;2023-02-28T00:49:49;102495.09;;;6.04;45.00
11648;BME280;5880;52.342;9.662;2023-02-28T00:52:15;102490.66;;;6.03;45.06
11648;BME280;5880;52.342;9.662;2023-02-28T00:54:40;102494.22;;;6.04;45.13
11648;BME280;5880;52.342;9.662;2023-02-28T00:57:06;102495.72;;;5.98;44.90
11648;BME280;5880;52.342;9.662;2023-02-28T00:59:31;102489.03;;;5.92;44.76
11648;BME280;5880;52.342;9.662;2023-02-28T01:01:57;102504.88;;;5.97;44.81
11648;BME280;5880;52.342;9.662;2023-02-28T01:04:23;102508.72;;;5.95;45.13
11648;BME280;5880;52.342;9.662;2023-02-28T01:06:48;102515.16;;;5.93;44.62
11648;BME280;5880;52.342;9.662;2023-02-28T01:09:14;102513.59;;;5.91;44.63
11648;BME280;5880;52.342;9.662;2023-02-28T01:11:41;102515.59;;;5.89;44.80
11648;BME280;5880;52.342;9.662;2023-02-28T01:14:16;102510.66;;;5.84;45.01
11648;BME280;5880;52.342;9.662;2023-02-28T01:16:42;102505.69;;;5.80;44.45
11648;BME280;5880;52.342;9.662;2023-02-28T01:19:08;102508.72;;;5.77;45.03
11648;BME280;5880;52.342;9.662;2023-02-28T01:21:34;102502.91;;;5.71;44.88
11648;BME280;5880;52.342;9.662;2023-02-28T01:24:01;102499.94;;;5.65;45.08
11648;BME280;5880;52.342;9.662;2023-02-28T01:26:27;102513.53;;;5.65;44.89
11648;BME280;5880;52.342;9.662;2023-02-28T01:28:53;102505.84;;;5.60;44.89
11648;BME280;5880;52.342;9.662;2023-02-28T01:31:21;102496.75;;;5.52;44.87
11648;BME280;5880;52.342;9.662;2023-02-28T01:33:47;102512.88;;;5.53;44.57
11648;BME280;5880;52.342;9.662;2023-02-28T01:36:16;102510.63;;;5.48;44.80
11648;BME280;5880;52.342;9.662;2023-02-28T01:38:43;102511.09;;;5.44;44.95
11648;BME280;5880;52.342;9.662;2023-02-28T01:41:21;102507.81;;;5.40;44.79
11648;BME280;5880;52.342;9.662;2023-02-28T01:46:14;102512.13;;;5.33;44.77
11648;BME280;5880;52.342;9.662;2023-02-28T01:48:53;102509.75;;;5.30;44.68
11648;BME280;5880;52.342;9.662;2023-02-28T01:51:40;102515.63;;;5.25;45.00
11648;BME280;5880;52.342;9.662;2023-02-28T01:54:18;102506.25;;;5.20;44.86
11648;BME280;5880;52.342;9.662;2023-02-28T01:57:00;102513.66;;;5.18;44.79
11648;BME280;5880;52.342;9.662;2023-02-28T01:59:57;102510.38;;;5.14;44.81
11648;BME280;5880;52.342;9.662;2023-02-28T02:02:22;102507.28;;;5.09;44.86
11648;BME280;5880;52.342;9.662;2023-02-28T02:05:04;102496.75;;;5.06;44.87
11648;BME280;5880;52.342;9.662;2023-02-28T02:07:35;102499.75;;;5.03;44.73
11648;BME280;5880;52.342;9.662;2023-02-28T02:10:19;102500.91;;;5.00;45.08
11648;BME280;5880;52.342;9.662;2023-02-28T02:13:18;102491.81;;;4.92;44.94
11648;BME280;5880;52.342;9.662;2023-02-28T02:16:32;102495.53;;;4.91;45.05
11648;BME280;5880;52.342;9.662;2023-02-28T02:34:47;102490.06;;;4.63;44.79
11648;BME280;5880;52.342;9.662;2023-02-28T02:40:43;102483.53;;;4.56;45.24
11648;BME280;5880;52.342;9.662;2023-02-28T02:43:50;102486.53;;;4.53;44.83
11648;BME280;5880;52.342;9.662;2023-02-28T02:48:55;102478.16;;;4.46;44.76
11648;BME280;5880;52.342;9.662;2023-02-28T02:51:24;102494.09;;;4.49;44.92
11648;BME280;5880;52.342;9.662;2023-02-28T02:54:13;102488.97;;;4.46;44.99
11648;BME280;5880;52.342;9.662;2023-02-28T02:56:45;102496.25;;;4.46;44.82
11648;BME280;5880;52.342;9.662;2023-02-28T02:59:17;102493.84;;;4.42;45.15
11648;BME280;5880;52.342;9.662;2023-02-28T03:01:52;102489.84;;;4.37;44.83
11648;BME280;5880;52.342;9.662;2023-02-28T03:04:22;102490.44;;;4.40;45.10
11648;BME280;5880;52.342;9.662;2023-02-28T03:06:51;102494.13;;;4.39;44.85
11648;BME280;5880;52.342;9.662;2023-02-28T03:09:25;102492.44;;;4.38;45.16
11648;BME280;5880;52.342;9.662;2023-02-28T03:11:54;102493.41;;;4.37;45.07
11648;BME280;5880;52.342;9.662;2023-02-28T03:21:10;102484.47;;;4.27;44.99
11648;BME280;5880;52.342;9.662;2023-02-28T03:24:04;102472.38;;;4.21;44.99
11648;BME280;5880;52.342;9.662;2023-02-28T03:26:39;102486.47;;;4.25;45.27
11648;BME280;5880;52.342;9.662;2023-02-28T03:31:52;102482.19;;;4.22;45.00
11648;BME280;5880;52.342;9.662;2023-02-28T03:34:29;102465.69;;;4.16;45.23
11648;BME280;5880;52.342;9.662;2023-02-28T03:37:05;102475.22;;;4.20;45.27
11648;BME280;5880;52.342;9.662;2023-02-28T03:40:02;102474.50;;;4.18;45.04
11648;BME280;5880;52.342;9.662;2023-02-28T03:42:35;102480.22;;;4.15;45.08
11648;BME280;5880;52.342;9.662;2023-02-28T03:45:13;102483.78;;;4.15;44.98
11648;BME280;5880;52.342;9.662;2023-02-28T03:47:51;102472.25;;;4.13;45.28
11648;BME280;5880;52.342;9.662;2023-02-28T03:50:31;102470.69;;;4.11;45.34
11648;BME280;5880;52.342;9.662;2023-02-28T03:53:20;102477.09;;;4.10;45.16
11648;BME280;5880;52.342;9.662;2023-02-28T03:56:01;102480.91;;;4.07;45.36
11648;BME280;5880;52.342;9.662;2023-02-28T03:58:48;102477.81;;;4.02;45.38
11648;BME280;5880;52.342;9.662;2023-02-28T04:01:23;102481.34;;;4.02;45.47
11648;BME280;5880;52.342;9.662;2023-02-28T04:03:51;102483.38;;;4.00;45.31
11648;BME280;5880;52.342;9.662;2023-02-28T04:06:21;102490.63;;;4.00;45.24
11648;BME280;5880;52.342;9.662;2023-02-28T04:08:48;102482.66;;;3.98;45.28
11648;BME280;5880;52.342;9.662;2023-02-28T04:11:23;102482.66;;;3.98;45.50
11648;BME280;5880;52.342;9.662;2023-02-28T04:13:49;102487.34;;;3.96;45.15
11648;BME280;5880;52.342;9.662;2023-02-28T04:16:15;102487.50;;;3.95;45.15
11648;BME280;5880;52.342;9.662;2023-02-28T04:18:42;102489.47;;;3.93;45.04
11648;BME280;5880;52.342;9.662;2023-02-28T04:21:09;102490.50;;;3.92;45.12
11648;BME280;5880;52.342;9.662;2023-02-28T04:23:35;102491.63;;;3.89;45.15
11648;BME280;5880;52.342;9.662;2023-02-28T04:26:01;102498.44;;;3.84;45.15
11648;BME280;5880;52.342;9.662;2023-02-28T04:28:26;102500.03;;;3.86;44.96
11648;BME280;5880;52.342;9.662;2023-02-28T04:31:02;102496.47;;;3.86;45.14
11648;BME280;5880;52.342;9.662;2023-02-28T04:33:28;102500.31;;;3.83;45.35
11648;BME280;5880;52.342;9.662;2023-02-28T04:36:05;102498.63;;;3.82;45.11
11648;BME280;5880;52.342;9.662;2023-02-28T04:38:35;102501.44;;;3.80;45.19
11648;BME280;5880;52.342;9.662;2023-02-28T04:41:01;102494.47;;;3.78;45.18
11648;BME280;5880;52.342;9.662;2023-02-28T04:43:28;102500.03;;;3.76;45.41
11648;BME280;5880;52.342;9.662;2023-02-28T04:45:56;102493.03;;;3.74;45.53
11648;BME280;5880;52.342;9.662;2023-02-28T04:48:28;102502.72;;;3.76;45.50
11648;BME280;5880;52.342;9.662;2023-02-28T04:50:54;102506.56;;;3.74;45.57
11648;BME280;5880;52.342;9.662;2023-02-28T04:53:20;102496.03;;;3.71;45.69
11648;BME280;5880;52.342;9.662;2023-02-28T04:55:46;102504.16;;;3.71;45.26
11648;BME280;5880;52.342;9.662;2023-02-28T04:58:13;102505.13;;;3.70;45.70
11648;BME280;5880;52.342;9.662;2023-02-28T05:00:39;102504.44;;;3.68;45.17
11648;BME280;5880;52.342;9.662;2023-02-28T05:03:05;102502.59;;;3.68;45.19
11648;BME280;5880;52.342;9.662;2023-02-28T05:05:30;102505.44;;;3.67;45.64
11648;BME280;5880;52.342;9.662;2023-02-28T05:07:56;102501.16;;;3.64;45.57
11648;BME280;5880;52.342;9.662;2023-02-28T05:10:23;102499.47;;;3.63;45.42
11648;BME280;5880;52.342;9.662;2023-02-28T05:12:49;102496.88;;;3.62;45.24
11648;BME280;5880;52.342;9.662;2023-02-28T05:15:16;102502.44;;;3.60;45.54
11648;BME280;5880;52.342;9.662;2023-02-28T05:17:42;102501.72;;;3.58;45.40
11648;BME280;5880;52.342;9.662;2023-02-28T05:20:09;102498.03;;;3.59;45.41
11648;BME280;5880;52.342;9.662;2023-02-28T05:22:40;102502.00;;;3.55;45.23
11648;BME280;5880;52.342;9.662;2023-02-28T05:25:10;102503.84;;;3.54;45.33
11648;BME280;5880;52.342;9.662;2023-02-28T05:27:37;102505.97;;;3.51;45.32
11648;BME280;5880;52.342;9.662;2023-02-28T05:30:04;102506.38;;;3.46;45.58
11648;BME280;5880;52.342;9.662;2023-02-28T05:32:31;102513.25;;;3.50;45.43
11648;BME280;5880;52.342;9.662;2023-02-28T05:34:57;102507.09;;;3.48;45.26
11648;BME280;5880;52.342;9.662;2023-02-28T05:37:22;102508.84;;;3.49;45.58
11648;BME280;5880;52.342;9.662;2023-02-28T05:39:48;102503.97;;;3.43;45.26
11648;BME280;5880;52.342;9.662;2023-02-28T05:42:13;102520.06;;;3.45;45.42
11648;BME280;5880;52.342;9.662;2023-02-28T05:44:39;102522.19;;;3.41;45.39
11648;BME280;5880;52.342;9.662;2023-02-28T05:47:05;102536.72;;;3.40;45.30
11648;BME280;5880;52.342;9.662;2023-02-28T05:49:30;102541.41;;;3.38;45.39
11648;BME280;5880;52.342;9.662;2023-02-28T05:51:56;102524.88;;;3.31;45.82
11648;BME280;5880;52.342;9.662;2023-02-28T05:54:22;102530.28;;;3.31;45.58
11648;BME280;5880;52.342;9.662;2023-02-28T05:56:47;102527.69;;;3.30;45.76
11648;BME280;5880;52.342;9.662;2023-02-28T05:59:13;102524.31;;;3.28;46.03
11648;BME280;5880;52.342;9.662;2023-02-28T06:01:43;102527.69;;;3.30;45.97
11648;BME280;5880;52.342;9.662;2023-02-28T06:04:16;102531.41;;;3.29;45.95
11648;BME280;5880;52.342;9.662;2023-02-28T06:06:45;102537.81;;;3.28;45.52
11648;BME280;5880;52.342;9.662;2023-02-28T06:09:11;102532.41;;;3.28;46.06
11648;BME280;5880;52.342;9.662;2023-02-28T06:11:37;102537.81;;;3.28;45.71
11648;BME280;5880;52.342;9.662;2023-02-28T06:14:05;102531.69;;;3.26;45.71
11648;BME280;5880;52.342;9.662;2023-02-28T06:16:33;102535.38;;;3.25;45.65
11648;BME280;5880;52.342;9.662;2023-02-28T06:19:01;102530.53;;;3.19;45.63
11648;BME280;5880;52.342;9.662;2023-02-28T06:21:29;102536.63;;;3.21;45.76
11648;BME280;5880;52.342;9.662;2023-02-28T06:23:56;102544.91;;;3.19;45.97
11648;BME280;5880;52.342;9.662;2023-02-28T06:26:23;102541.34;;;3.19;45.78
11648;BME280;5880;52.342;9.662;2023-02-28T06:28:49;102537.75;;;3.18;45.63
11648;BME280;5880;52.342;9.662;2023-02-28T06:31:17;102549.56;;;3.17;45.98
11648;BME280;5880;52.342;9.662;2023-02-28T06:33:44;102545.03;;;3.17;46.05
11648;BME280;5880;52.342;9.662;2023-02-28T06:36:12;102541.47;;;3.17;46.07
11648;BME280;5880;52.342;9.662;2023-02-28T06:38:39;102554.84;;;3.19;46.04
11648;BME280;5880;52.342;9.662;2023-02-28T06:41:05;102553.00;;;3.19;45.62
11648;BME280;5880;52.342;9.662;2023-02-28T06:43:38;102555.56;;;3.21;45.68
11648;BME280;5880;52.342;9.662;2023-02-28T06:46:07;102562.69;;;3.22;46.14
11648;BME280;5880;52.342;9.662;2023-02-28T06:48:34;102556.44;;;3.21;46.39
11648;BME280;5880;52.342;9.662;2023-02-28T06:51:13;102561.44;;;3.26;46.10
11648;BME280;5880;52.342;9.662;2023-02-28T06:53:40;102560.41;;;3.27;46.54
11648;BME280;5880;52.342;9.662;2023-02-28T06:56:08;102570.94;;;3.30;46.33
11648;BME280;5880;52.342;9.662;2023-02-28T06:58:35;102556.47;;;3.31;46.55
11648;BME280;5880;52.342;9.662;2023-02-28T07:01:01;102567.84;;;3.34;46.00
11648;BME280;5880;52.342;9.662;2023-02-28T07:03:27;102554.59;;;3.31;46.58
11648;BME280;5880;52.342;9.662;2023-02-28T07:05:52;102569.16;;;3.40;46.45
11648;BME280;5880;52.342;9.662;2023-02-28T07:08:18;102569.88;;;3.42;46.72
11648;BME280;5880;52.342;9.662;2023-02-28T07:10:44;102571.28;;;3.46;46.31
11648;BME280;5880;52.342;9.662;2023-02-28T07:13:10;102574.59;;;3.50;46.73
11648;BME280;5880;52.342;9.662;2023-02-28T07:15:37;102563.03;;;3.48;46.94
11648;BME280;5880;52.342;9.662;2023-02-28T07:18:03;102571.47;;;3.54;46.82
11648;BME280;5880;52.342;9.662;2023-02-28T07:20:29;102569.59;;;3.55;46.49
11648;BME280;5880;52.342;9.662;2023-02-28T07:22:55;102571.47;;;3.64;46.55
11648;BME280;5880;52.342;9.662;2023-02-28T07:25:30;102573.75;;;3.69;47.12
11648;BME280;5880;52.342;9.662;2023-02-28T07:27:56;102580.31;;;3.76;47.14
11648;BME280;5880;52.342;9.662;2023-02-28T07:30:22;102571.66;;;3.92;48.79
11648;BME280;5880;52.342;9.662;2023-02-28T07:32:48;102596.47;;;4.26;49.95
11648;BME280;5880;52.342;9.662;2023-02-28T07:35:13;102585.28;;;4.78;51.28
11648;BME280;5880;52.342;9.662;2023-02-28T07:37:41;102590.59;;;5.44;52.72
11648;BME280;5880;52.342;9.662;2023-02-28T07:40:11;102588.09;;;6.24;53.50
11648;BME280;5880;52.342;9.662;2023-02-28T07:42:38;102582.41;;;7.06;53.35
11648;BME280;5880;52.342;9.662;2023-02-28T07:45:07;102593.25;;;7.82;53.03
11648;BME280;5880;52.342;9.662;2023-02-28T07:47:33;102591.47;;;8.32;51.48
11648;BME280;5880;52.342;9.662;2023-02-28T07:49:59;102583.81;;;8.60;49.88
11648;BME280;5880;52.342;9.662;2023-02-28T07:52:25;102591.47;;;8.73;48.32
11648;BME280;5880;52.342;9.662;2023-02-28T07:54:51;102589.59;;;8.74;47.57
11648;BME280;5880;52.342;9.662;2023-02-28T07:57:17;102596.59;;;8.68;46.65
11648;BME280;5880;52.342;9.662;2023-02-28T07:59:43;102584.50;;;8.54;46.38
11648;BME280;5880;52.342;9.662;2023-02-28T08:02:16;102589.75;;;8.39;46.13
11648;BME280;5880;52.342;9.662;2023-02-28T08:04:43;102584.47;;;8.21;46.28
11648;BME280;5880;52.342;9.662;2023-02-28T08:07:09;102571.16;;;8.02;45.92
11648;BME280;5880;52.342;9.662;2023-02-28T08:09:42;102581.53;;;7.90;46.04
11648;BME280;5880;52.342;9.662;2023-02-28T08:12:10;102580.47;;;7.75;45.82
11648;BME280;5880;52.342;9.662;2023-02-28T08:14:36;102580.94;;;7.62;45.95
11648;BME280;5880;52.342;9.662;2023-02-28T08:17:03;102578.72;;;7.49;45.52
11648;BME280;5880;52.342;9.662;2023-02-28T08:19:30;102578.44;;;7.34;45.91
11648;BME280;5880;52.342;9.662;2023-02-28T08:21:56;102579.75;;;7.22;45.89
11648;BME280;5880;52.342;9.662;2023-02-28T08:24:22;102580.88;;;7.11;45.88
11648;BME280;5880;52.342;9.662;2023-02-28T08:26:49;102580.84;;;7.03;46.13
11648;BME280;5880;52.342;9.662;2023-02-28T08:29:14;102584.38;;;6.95;45.78
11648;BME280;5880;52.342;9.662;2023-02-28T08:31:42;102590.59;;;6.88;45.94
11648;BME280;5880;52.342;9.662;2023-02-28T08:34:10;102583.13;;;6.82;45.85
11648;BME280;5880;52.342;9.662;2023-02-28T08:36:37;102597.31;;;6.75;46.12
11648;BME280;5880;52.342;9.662;2023-02-28T08:39:03;102591.66;;;6.69;46.48
11648;BME280;5880;52.342;9.662;2023-02-28T08:41:29;102585.88;;;6.64;46.40
11648;BME280;5880;52.342;9.662;2023-02-28T08:43:55;102586.66;;;6.56;46.37
11648;BME280;5880;52.342;9.662;2023-02-28T08:46:21;102596.28;;;6.50;46.27
11648;BME280;5880;52.342;9.662;2023-02-28T08:48:46;102583.81;;;6.40;46.49
11648;BME280;5880;52.342;9.662;2023-02-28T08:51:16;102592.81;;;6.40;46.69
11648;BME280;5880;52.342;9.662;2023-02-28T08:53:46;102592.25;;;6.37;46.56
11648;BME280;5880;52.342;9.662;2023-02-28T08:56:16;102597.03;;;6.34;46.67
11648;BME280;5880;52.342;9.662;2023-02-28T08:58:46;102591.72;;;6.33;46.33
11648;BME280;5880;52.342;9.662;2023-02-28T09:01:17;102590.34;;;6.29;46.42
11648;BME280;5880;52.342;9.662;2023-02-28T09:03:44;102598.16;;;6.32;46.23
11648;BME280;5880;52.342;9.662;2023-02-28T09:06:12;102606.31;;;6.32;46.72
11648;BME280;5880;52.342;9.662;2023-02-28T09:08:39;102600.59;;;6.35;46.58
11648;BME280;5880;52.342;9.662;2023-02-28T09:11:04;102597.69;;;6.37;46.59
11648;BME280;5880;52.342;9.662;2023-02-28T09:13:31;102603.53;;;6.42;46.69
11648;BME280;5880;52.342;9.662;2023-02-28T09:15:59;102598.28;;;6.48;47.24
11648;BME280;5880;52.342;9.662;2023-02-28T09:18:26;102602.78;;;6.58;46.98
11648;BME280;5880;52.342;9.662;2023-02-28T09:20:52;102598.88;;;6.78;47.45
11648;BME280;5880;52.342;9.662;2023-02-28T09:23:17;102594.00;;;7.16;48.44
11648;BME280;5880;52.342;9.662;2023-02-28T09:25:53;102603.13;;;7.83;48.66
11648;BME280;5880;52.342;9.662;2023-02-28T09:28:20;102605.78;;;8.59;48.68
11648;BME280;5880;52.342;9.662;2023-02-28T09:30:53;102601.41;;;9.30;47.09
11648;BME280;5880;52.342;9.662;2023-02-28T09:33:21;102598.72;;;9.92;46.41
11648;BME280;5880;52.342;9.662;2023-02-28T09:35:56;102600.22;;;10.49;46.01
11648;BME280;5880;52.342;9.662;2023-02-28T09:38:22;102596.47;;;11.03;45.13
11648;BME280;5880;52.342;9.662;2023-02-28T09:41:20;102601.81;;;11.56;44.52
11648;BME280;5880;52.342;9.662;2023-02-28T09:43:55;102603.22;;;11.96;43.99
11648;BME280;5880;52.342;9.662;2023-02-28T09:46:37;102584.63;;;12.35;43.37
11648;BME280;5880;52.342;9.662;2023-02-28T09:49:15;102598.91;;;12.80;43.71
11648;BME280;5880;52.342;9.662;2023-02-28T09:52:04;102605.09;;;13.17;42.29
11648;BME280;5880;52.342;9.662;2023-02-28T09:54:35;102586.47;;;13.40;42.31
11648;BME280;5880;52.342;9.662;2023-02-28T09:57:37;102593.34;;;13.71;41.49
11648;BME280;5880;52.342;9.662;2023-02-28T10:00:32;102592.41;;;13.99;41.61
11648;BME280;5880;52.342;9.662;2023-02-28T10:06:13;102596.94;;;14.80;41.55
11648;BME280;5880;52.342;9.662;2023-02-28T10:09:02;102589.28;;;15.15;40.90
11648;BME280;5880;52.342;9.662;2023-02-28T10:11:32;102594.53;;;15.36;39.52
11648;BME280;5880;52.342;9.662;2023-02-28T10:14:24;102586.00;;;15.45;37.80
11648;BME280;5880;52.342;9.662;2023-02-28T10:16:58;102583.88;;;15.47;37.96
11648;BME280;5880;52.342;9.662;2023-02-28T10:19:51;102597.19;;;15.56;38.08
11648;BME280;5880;52.342;9.662;2023-02-28T10:22:51;102586.34;;;15.61;36.90
11648;BME280;5880;52.342;9.662;2023-02-28T10:25:22;102587.69;;;15.52;35.97
11648;BME280;5880;52.342;9.662;2023-02-28T10:27:53;102589.59;;;15.45;36.00
11648;BME280;5880;52.342;9.662;2023-02-28T10:30:21;102583.25;;;15.45;36.31
11648;BME280;5880;52.342;9.662;2023-02-28T10:32:50;102588.78;;;15.38;35.92
11648;BME280;5880;52.342;9.662;2023-02-28T10:35:22;102587.78;;;15.19;35.41
11648;BME280;5880;52.342;9.662;2023-02-28T10:37:53;102585.28;;;14.97;34.95
11648;BME280;5880;52.342;9.662;2023-02-28T10:43:02;102577.06;;;14.64;35.03
11648;BME280;5880;52.342;9.662;2023-02-28T10:45:31;102581.47;;;14.52;35.17
11648;BME280;5880;52.342;9.662;2023-02-28T10:48:47;102583.38;;;14.31;34.88
11648;BME280;5880;52.342;9.662;2023-02-28T10:56:18;102590.50;;;12.81;35.27
11648;BME280;5880;52.342;9.662;2023-02-28T10:59:01;102578.22;;;12.28;34.83
11648;BME280;5880;52.342;9.662;2023-02-28T11:03:56;102587.69;;;11.52;35.01
11648;BME280;5880;52.342;9.662;2023-02-28T11:06:29;102576.91;;;11.21;35.58
11648;BME280;5880;52.342;9.662;2023-02-28T11:09:04;102576.53;;;10.94;36.04
11648;BME280;5880;52.342;9.662;2023-02-28T11:11:44;102579.72;;;10.68;36.13
11648;BME280;5880;52.342;9.662;2023-02-28T11:14:33;102571.16;;;10.48;36.47
11648;BME280;5880;52.342;9.662;2023-02-28T11:17:26;102566.38;;;10.27;36.70
11648;BME280;5880;52.342;9.662;2023-02-28T11:20:07;102565.47;;;10.12;36.82
11648;BME280;5880;52.342;9.662;2023-02-28T11:22:45;102577.88;;;10.00;36.82
11648;BME280;5880;52.342;9.662;2023-02-28T11:25:35;102562.41;;;9.84;36.99
11648;BME280;5880;52.342;9.662;2023-02-28T11:28:06;102565.72;;;9.71;37.32
11648;BME280;5880;52.342;9.662;2023-02-28T11:30:40;102564.94;;;9.62;37.29
11648;BME280;5880;52.342;9.662;2023-02-28T11:33:32;102560.72;;;9.51;37.27
11648;BME280;5880;52.342;9.662;2023-02-28T11:36:04;102558.88;;;9.44;36.97
11648;BME280;5880;52.342;9.662;2023-02-28T11:38:36;102552.59;;;9.35;37.00
11648;BME280;5880;52.342;9.662;2023-02-28T11:47:26;102554.72;;;9.17;37.47
11648;BME280;5880;52.342;9.662;2023-02-28T11:50:20;102554.56;;;9.10;37.45
11648;BME280;5880;52.342;9.662;2023-02-28T11:58:41;102552.72;;;8.94;37.73
11648;BME280;5880;52.342;9.662;2023-02-28T12:04:39;102540.19;;;8.85;37.90
11648;BME280;5880;52.342;9.662;2023-02-28T12:07:33;102539.97;;;8.95;38.71
11648;BME280;5880;52.342;9.662;2023-02-28T12:10:26;102542.50;;;9.04;38.54
11648;BME280;5880;52.342;9.662;2023-02-28T12:13:12;102525.28;;;9.04;38.08
11648;BME280;5880;52.342;9.662;2023-02-28T12:15:47;102533.59;;;9.11;38.38
11648;BME280;5880;52.342;9.662;2023-02-28T12:19:23;102526.97;;;9.13;38.37
11648;BME280;5880;52.342;9.662;2023-02-28T12:24:50;102527.41;;;9.25;38.50
11648;BME280;5880;52.342;9.662;2023-02-28T12:27:23;102519.88;;;9.27;38.71
11648;BME280;5880;52.342;9.662;2023-02-28T12:29:57;102520.38;;;9.30;38.31
11648;BME280;5880;52.342;9.662;2023-02-28T12:32:32;102515.09;;;9.29;37.70
11648;BME280;5880;52.342;9.662;2023-02-28T12:37:37;102519.22;;;9.25;38.09
11648;BME280;5880;52.342;9.662;2023-02-28T12:40:16;102519.41;;;9.23;37.53
11648;BME280;5880;52.342;9.662;2023-02-28T12:42:49;102512.91;;;9.24;38.10
11648;BME280;5880;52.342;9.662;2023-02-28T12:45:58;102503.34;;;9.28;38.42
11648;BME280;5880;52.342;9.662;2023-02-28T12:48:48;102498.69;;;9.37;38.67
11648;BME280;5880;52.342;9.662;2023-02-28T12:51:16;102488.94;;;9.43;39.01
11648;BME280;5880;52.342;9.662;2023-02-28T12:54:10;102501.94;;;9.64;39.23
11648;BME280;5880;52.342;9.662;2023-02-28T12:59:56;102492.91;;;9.86;39.04
11648;BME280;5880;52.342;9.662;2023-02-28T13:09:10;102477.50;;;9.93;38.83
11648;BME280;5880;52.342;9.662;2023-02-28T13:11:51;102470.16;;;9.94;38.34
11648;BME280;5880;52.342;9.662;2023-02-28T13:14:30;102472.41;;;9.90;38.08
11648;BME280;5880;52.342;9.662;2023-02-28T13:19:35;102460.16;;;9.86;38.15
11648;BME280;5880;52.342;9.662;2023-02-28T13:22:02;102462.19;;;9.84;37.89
11648;BME280;5880;52.342;9.662;2023-02-28T13:24:42;102443.63;;;9.80;38.19
11648;BME280;5880;52.342;9.662;2023-02-28T13:29:40;102464.09;;;9.84;38.02
11648;BME280;5880;52.342;9.662;2023-02-28T13:34:37;102460.97;;;9.87;38.24
11648;BME280;5880;52.342;9.662;2023-02-28T13:39:53;102457.22;;;9.88;38.20
11648;BME280;5880;52.342;9.662;2023-02-28T13:47:41;102451.56;;;9.89;37.94
11648;BME280;5880;52.342;9.662;2023-02-28T13:50:36;102441.19;;;9.85;38.03
11648;BME280;5880;52.342;9.662;2023-02-28T13:56:08;102444.00;;;9.77;37.86
11648;BME280;5880;52.342;9.662;2023-02-28T13:59:13;102425.91;;;9.76;38.19
11648;BME280;5880;52.342;9.662;2023-02-28T14:01:53;102436.28;;;9.80;38.42
11648;BME280;5880;52.342;9.662;2023-02-28T14:04:45;102438.00;;;9.81;38.02
11648;BME280;5880;52.342;9.662;2023-02-28T14:07:26;102426.41;;;9.79;38.19
11648;BME280;5880;52.342;9.662;2023-02-28T14:10:07;102431.31;;;9.84;38.22
11648;BME280;5880;52.342;9.662;2023-02-28T14:12:54;102425.66;;;9.85;38.36
11648;BME280;5880;52.342;9.662;2023-02-28T14:18:25;102427.00;;;9.89;38.45
11648;BME280;5880;52.342;9.662;2023-02-28T14:21:16;102433.13;;;9.91;38.37
11648;BME280;5880;52.342;9.662;2023-02-28T14:27:03;102438.47;;;9.85;37.84
11648;BME280;5880;52.342;9.662;2023-02-28T14:29:56;102434.78;;;9.78;37.47
11648;BME280;5880;52.342;9.662;2023-02-28T14:32:49;102431.56;;;9.74;37.73
11648;BME280;5880;52.342;9.662;2023-02-28T14:38:30;102434.31;;;9.74;38.06
11648;BME280;5880;52.342;9.662;2023-02-28T14:41:01;102441.94;;;9.79;37.83
11648;BME280;5880;52.342;9.662;2023-02-28T14:43:28;102436.66;;;9.77;37.84
11648;BME280;5880;52.342;9.662;2023-02-28T14:45:59;102433.63;;;9.72;38.01
11648;BME280;5880;52.342;9.662;2023-02-28T14:48:26;102435.16;;;9.75;37.96
11648;BME280;5880;52.342;9.662;2023-02-28T14:50:56;102427.63;;;9.77;37.84
11648;BME280;5880;52.342;9.662;2023-02-28T14:53:26;102431.38;;;9.76;37.41
11648;BME280;5880;52.342;9.662;2023-02-28T14:55:53;102428.16;;;9.72;37.52
11648;BME280;5880;52.342;9.662;2023-02-28T14:58:28;102427.28;;;9.71;37.16
11648;BME280;5880;52.342;9.662;2023-02-28T15:00:58;102426.81;;;9.68;37.43
11648;BME280;5880;52.342;9.662;2023-02-28T15:03:35;102432.47;;;9.66;37.03
11648;BME280;5880;52.342;9.662;2023-02-28T15:06:06;102428.88;;;9.66;37.57
11648;BME280;5880;52.342;9.662;2023-02-28T15:08:37;102421.25;;;9.61;37.78
11648;BME280;5880;52.342;9.662;2023-02-28T15:11:15;102427.50;;;9.70;37.65
11648;BME280;5880;52.342;9.662;2023-02-28T15:13:54;102425.59;;;9.70;37.91
11648;BME280;5880;52.342;9.662;2023-02-28T15:16:41;102425.59;;;9.70;37.77
11648;BME280;5880;52.342;9.662;2023-02-28T15:19:22;102428.50;;;9.69;37.72
11648;BME280;5880;52.342;9.662;2023-02-28T15:21:56;102427.00;;;9.66;37.56
11648;BME280;5880;52.342;9.662;2023-02-28T15:24:39;102424.66;;;9.63;37.38